Flight Track Log - Related Links

Times and Time Zones

All times are in EDT time to prevent confusion due to time zone crossing. See the N118JV flight status page for this flight to view local times or setup timezone preferences in your user account.

Time Position Orientation Groundspeed Altitude Reporting Facility
EDT Latitude Longitude Course Direction KTS MPH feet Rate Location/Type
Mon 03:03:24 PM 29.6153 -98.3736 37° Northeast 175 201 4,800  Level Houston Center
Mon 03:04:26 PM 29.6594 -98.3353 37° Northeast 198 228 5,000 677 Climbing Houston Center
Mon 03:05:28 PM 29.7197 -98.3417 355° North 198 228 6,200 1,306 Climbing Houston Center
Mon 03:06:30 PM 29.7711 -98.3489 353° North 187 215 7,700 1,403 Climbing Houston Center
Mon 03:07:32 PM 29.8267 -98.3567 353° North 188 216 9,100 1,403 Climbing Houston Center
Mon 03:08:34 PM 29.8800 -98.3636 354° North 192 221 10,600 1,452 Climbing Houston Center
Mon 03:09:36 PM 29.9294 -98.3697 354° North 179 206 12,100 1,403 Climbing Houston Center
Mon 03:10:38 PM 29.9819 -98.3767 353° North 178 205 13,500 1,306 Climbing Houston Center
Mon 03:11:40 PM 30.0325 -98.3836 353° North 183 211 14,800 1,306 Climbing Houston Center
Mon 03:12:42 PM 30.0836 -98.3906 353° North 184 212 16,200 1,355 Climbing Houston Center
Mon 03:13:44 PM 30.1372 -98.3889 North 178 205 17,600 1,306 Climbing Houston Center
Mon 03:14:46 PM 30.1931 -98.3811 North 185 213 18,900 1,161 Climbing Houston Center
Mon 03:15:48 PM 30.2447 -98.3742 North 189 217 20,000 1,113 Climbing Houston Center
Mon 03:16:50 PM 30.2986 -98.3644 North 195 224 21,200 1,104 Climbing Houston Center
Mon 03:17:53 PM 30.3553 -98.3572 North 198 228 22,300 1,008 Climbing Houston Center
Mon 03:18:55 PM 30.4106 -98.3489 North 197 227 23,300 1,016 Climbing Houston Center
Mon 03:19:57 PM 30.4656 -98.3411 North 198 228 24,400 823 Climbing Houston Center
Mon 03:20:59 PM 30.5219 -98.3314 North 200 230 25,000 242 Climbing Houston Center
Mon 03:22:01 PM 30.5853 -98.3228 North 219 252 24,900 -48 Descending Houston Center
Mon 03:23:03 PM 30.6550 -98.3125 North 243 280 24,900  Level Houston Center
Mon 03:24:05 PM 30.7375 -98.3003 North 251 289 24,900  Level Houston Center
Mon 03:25:07 PM 30.8078 -98.2903 North 252 290 24,900  Level Houston Center
Mon 03:26:09 PM 30.8792 -98.2789 North 253 291 24,900  Level Houston Center
Mon 03:27:11 PM 30.9511 -98.2689 North 256 295 24,900  Level Houston Center
Mon 03:28:13 PM 31.0217 -98.2586 North 254 292 24,900  Level Houston Center
Mon 03:29:15 PM 31.0939 -98.2475 North 258 297 24,900  Level Houston Center
Mon 03:30:17 PM 31.1664 -98.2367 North 258 297 24,900  Level Houston Center
Mon 03:31:19 PM 31.2375 -98.2261 North 255 293 24,900 -144 Level Houston Center
Mon 03:32:22 PM 31.3214 -98.2136 North 257 296 24,600 -384 Descending Houston Center
Mon 03:33:24 PM 31.3983 -98.2017 North 271 312 24,100 -339 Descending Houston Center
Mon 03:34:26 PM 31.4736 -98.1906 North 270 311 23,900 -145 Descending Houston Center
Mon 03:35:28 PM 31.5478 -98.1783 North 267 307 23,800 -532 Descending Houston Center
Mon 03:36:30 PM 31.6144 -98.1381 27° Northeast 280 322 22,800 -942 Descending Houston Center
Mon 03:37:29 PM 31.6750 -98.0772 41° Northeast 262 302 21,900 -1,008 Descending Fort Worth Center
Mon 03:38:29 PM 31.7317 -98.0217 40° Northeast 270 311 20,800 -1,300 Descending Fort Worth Center
Mon 03:39:29 PM 31.7903 -97.9658 39° Northeast 270 311 19,300 -1,500 Descending Fort Worth Center
Mon 03:40:29 PM 31.8469 -97.9122 39° Northeast 264 304 17,800 2,826 Descending Fort Worth Center
Mon 03:41:30 PM 31.9014 -97.8564 41° Northeast 250 288 25,000 -1,500 Climbing Fort Worth Center
Mon 03:42:29 PM 31.9558 -97.8075 37° Northeast 250 288 14,800 -5,748 Descending Fort Worth Center
Mon 03:43:29 PM 32.0061 -97.7539 42° Northeast 245 282 13,600 -1,200 Descending Fort Worth Center
Mon 03:44:29 PM 32.0522 -97.7100 39° Northeast 240 276 12,400 -1,500 Descending Fort Worth Center
Mon 03:45:29 PM 32.1086 -97.6586 38° Northeast 234 269 10,600 -1,800 Descending Fort Worth Center
Mon 03:46:29 PM 32.1525 -97.6147 40° Northeast 234 269 8,800 -1,600 Descending Fort Worth Center
Mon 03:47:29 PM 32.2008 -97.5656 41° Northeast 218 251 7,400 -950 Descending Fort Worth Center
Mon 03:49:00 PM 32.2617 -97.4883 40° Northeast  Level FlightAware Approximate
Mon 03:50:29 PM 32.3322 -97.4381 40° Northeast 208 239 5,000  Level Fort Worth Center
Mon 03:51:29 PM 32.3636 -97.3814 57° Northeast 197 227 5,000 -94 Level Fort Worth Center
Mon 03:52:36 PM 32.3833 -97.3000 74° East 199 229 4,800 -425 Descending Dallas / Fort Worth TRACON
Mon 03:53:36 PM 32.3833 -97.2333 90° East 200 230 4,100 -432 Descending Dallas / Fort Worth TRACON
Mon 03:54:41 PM 32.4000 -97.1667 73° East 195 224 3,900 -96 Descending Dallas / Fort Worth TRACON
Mon 03:55:41 PM 32.4167 -97.1167 68° East 199 229 3,900 56 Level Dallas / Fort Worth TRACON
Mon 03:56:29 PM 32.4194 -97.0689 86° East 202 232 4,000 56 Climbing Fort Worth Center
Mon 03:57:29 PM 32.4339 -97.0000 76° East 202 232 4,000  Level Fort Worth Center
Mon 03:58:29 PM 32.4608 -96.9506 57° Northeast 196 226 4,000  Level Fort Worth Center
Mon 03:59:29 PM 32.4983 -96.8886 54° Northeast 197 227 4,000 -31 Level Fort Worth Center
Mon 04:01:42 PM 32.5667 -96.7667 56° Northeast 204 235 3,900 -30 Descending Dallas / Fort Worth TRACON
Mon 04:02:47 PM 32.6167 -96.7167 40° Northeast 209 241 3,900  Level Dallas / Fort Worth TRACON
Mon 04:03:42 PM 32.6667 -96.6833 29° Northeast 205 236 3,900  Level Dallas / Fort Worth TRACON
Mon 04:04:42 PM 32.7167 -96.6500 29° Northeast 206 237 3,900  Level Dallas / Fort Worth TRACON
Mon 04:05:41 PM 32.7667 -96.6167 29° Northeast 202 232 3,900 -350 Level Dallas / Fort Worth TRACON
Mon 04:06:42 PM 32.8167 -96.6000 16° North 187 215 3,200 -496 Descending Dallas / Fort Worth TRACON
Mon 04:07:42 PM 32.8667 -96.5833 16° North 196 226 2,900 -150 Descending Dallas / Fort Worth TRACON
Mon 04:08:42 PM 32.9167 -96.5667 16° North 192 221 2,900  Level Dallas / Fort Worth TRACON
Mon 04:09:42 PM 32.9667 -96.5500 16° North 201 231 2,900 -250 Level Dallas / Fort Worth TRACON
Mon 04:10:42 PM 33.0167 -96.5500 360° North 205 236 2,400 -526 Descending Dallas / Fort Worth TRACON
Mon 04:11:36 PM 33.0667 -96.5500 360° North 199 229 1,900 -263 Descending Dallas / Fort Worth TRACON
Mon 04:12:36 PM 33.1167 -96.5667 344° North 178 205 1,900  Level Dallas / Fort Worth TRACON
Mon 04:13:42 PM 33.1667 -96.5500 16° North 169 194 1,900 -286 Level Dallas / Fort Worth TRACON
Mon 04:14:42 PM 33.2167 -96.5667 344° North 146 168 1,300 -600 Descending Dallas / Fort Worth TRACON
Mon 04:16:00 PM 33.1771 -96.5888 196° South  Level Estimated
Mon 04:23:00 PM 33.1771 -96.5888 196° South  Level Estimated

Login

Don't have an account? Register now (free) for customized features, flight alerts, and more!